sensor_id;sensor_type;location;lat;lon;timestamp;P1;durP1;ratioP1;P2;durP2;ratioP2
39890;SDS011;25564;53.312;9.790;2023-02-28T00:00:37;8.93;;;5.10;;
39890;SDS011;25564;53.312;9.790;2023-02-28T00:03:09;10.40;;;5.10;;
39890;SDS011;25564;53.312;9.790;2023-02-28T00:05:40;10.23;;;4.60;;
39890;SDS011;25564;53.312;9.790;2023-02-28T00:08:12;10.63;;;5.20;;
39890;SDS011;25564;53.312;9.790;2023-02-28T00:10:44;8.20;;;4.13;;
39890;SDS011;25564;53.312;9.790;2023-02-28T00:13:15;10.53;;;4.67;;
39890;SDS011;25564;53.312;9.790;2023-02-28T00:15:47;8.73;;;3.97;;
39890;SDS011;25564;53.312;9.790;2023-02-28T00:18:18;9.63;;;5.23;;
39890;SDS011;25564;53.312;9.790;2023-02-28T00:20:50;7.00;;;4.60;;
39890;SDS011;25564;53.312;9.790;2023-02-28T00:23:21;9.43;;;4.80;;
39890;SDS011;25564;53.312;9.790;2023-02-28T00:25:53;9.73;;;4.10;;
39890;SDS011;25564;53.312;9.790;2023-02-28T00:28:24;10.50;;;4.93;;
39890;SDS011;25564;53.312;9.790;2023-02-28T00:30:56;7.63;;;3.80;;
39890;SDS011;25564;53.312;9.790;2023-02-28T00:33:28;7.13;;;3.73;;
39890;SDS011;25564;53.312;9.790;2023-02-28T00:36:04;8.20;;;4.40;;
39890;SDS011;25564;53.312;9.790;2023-02-28T00:38:37;9.53;;;4.10;;
39890;SDS011;25564;53.312;9.790;2023-02-28T00:41:09;8.63;;;4.27;;
39890;SDS011;25564;53.312;9.790;2023-02-28T00:43:40;10.07;;;4.53;;
39890;SDS011;25564;53.312;9.790;2023-02-28T00:46:12;9.37;;;5.17;;
39890;SDS011;25564;53.312;9.790;2023-02-28T00:48:43;9.57;;;4.07;;
39890;SDS011;25564;53.312;9.790;2023-02-28T00:51:15;10.43;;;4.37;;
39890;SDS011;25564;53.312;9.790;2023-02-28T00:53:46;7.03;;;4.23;;
39890;SDS011;25564;53.312;9.790;2023-02-28T00:56:17;8.00;;;4.30;;
39890;SDS011;25564;53.312;9.790;2023-02-28T00:58:48;7.67;;;4.23;;
39890;SDS011;25564;53.312;9.790;2023-02-28T01:01:20;10.00;;;4.83;;
39890;SDS011;25564;53.312;9.790;2023-02-28T01:03:51;10.00;;;4.93;;
39890;SDS011;25564;53.312;9.790;2023-02-28T01:06:22;15.77;;;4.87;;
39890;SDS011;25564;53.312;9.790;2023-02-28T01:08:54;8.10;;;3.90;;
39890;SDS011;25564;53.312;9.790;2023-02-28T01:11:25;9.73;;;3.93;;
39890;SDS011;25564;53.312;9.790;2023-02-28T01:13:58;9.10;;;4.20;;
39890;SDS011;25564;53.312;9.790;2023-02-28T01:16:30;8.43;;;4.00;;
39890;SDS011;25564;53.312;9.790;2023-02-28T01:19:01;10.33;;;4.60;;
39890;SDS011;25564;53.312;9.790;2023-02-28T01:21:32;10.13;;;4.03;;
39890;SDS011;25564;53.312;9.790;2023-02-28T01:24:05;13.07;;;4.10;;
39890;SDS011;25564;53.312;9.790;2023-02-28T01:26:38;8.13;;;3.80;;
39890;SDS011;25564;53.312;9.790;2023-02-28T01:29:10;8.27;;;3.90;;
39890;SDS011;25564;53.312;9.790;2023-02-28T01:31:41;8.13;;;3.90;;
39890;SDS011;25564;53.312;9.790;2023-02-28T01:34:12;8.57;;;4.23;;
39890;SDS011;25564;53.312;9.790;2023-02-28T01:36:44;5.90;;;3.57;;
39890;SDS011;25564;53.312;9.790;2023-02-28T01:39:15;7.17;;;4.13;;
39890;SDS011;25564;53.312;9.790;2023-02-28T01:41:46;6.93;;;4.17;;
39890;SDS011;25564;53.312;9.790;2023-02-28T01:47:32;5.93;;;3.10;;
39890;SDS011;25564;53.312;9.790;2023-02-28T01:50:07;5.93;;;3.70;;
39890;SDS011;25564;53.312;9.790;2023-02-28T01:52:43;10.20;;;3.53;;
39890;SDS011;25564;53.312;9.790;2023-02-28T01:55:16;7.57;;;3.57;;
39890;SDS011;25564;53.312;9.790;2023-02-28T01:57:51;5.97;;;3.17;;
39890;SDS011;25564;53.312;9.790;2023-02-28T02:00:25;9.90;;;3.75;;
39890;SDS011;25564;53.312;9.790;2023-02-28T02:02:59;6.77;;;3.43;;
39890;SDS011;25564;53.312;9.790;2023-02-28T02:05:36;8.20;;;3.90;;
39890;SDS011;25564;53.312;9.790;2023-02-28T02:08:10;9.87;;;4.60;;
39890;SDS011;25564;53.312;9.790;2023-02-28T02:19:22;11.87;;;4.43;;
39890;SDS011;25564;53.312;9.790;2023-02-28T02:24:55;8.13;;;4.00;;
39890;SDS011;25564;53.312;9.790;2023-02-28T02:27:46;10.33;;;3.97;;
39890;SDS011;25564;53.312;9.790;2023-02-28T02:30:42;8.87;;;4.03;;
39890;SDS011;25564;53.312;9.790;2023-02-28T02:36:13;12.40;;;4.47;;
39890;SDS011;25564;53.312;9.790;2023-02-28T02:39:17;11.17;;;3.80;;
39890;SDS011;25564;53.312;9.790;2023-02-28T02:41:56;13.33;;;5.17;;
39890;SDS011;25564;53.312;9.790;2023-02-28T02:47:08;6.73;;;3.93;;
39890;SDS011;25564;53.312;9.790;2023-02-28T02:49:44;8.85;;;4.05;;
39890;SDS011;25564;53.312;9.790;2023-02-28T02:52:21;7.80;;;4.40;;
39890;SDS011;25564;53.312;9.790;2023-02-28T02:54:59;11.43;;;3.87;;
39890;SDS011;25564;53.312;9.790;2023-02-28T03:00:27;7.17;;;3.63;;
39890;SDS011;25564;53.312;9.790;2023-02-28T03:03:03;10.17;;;3.40;;
39890;SDS011;25564;53.312;9.790;2023-02-28T03:05:41;7.23;;;3.57;;
39890;SDS011;25564;53.312;9.790;2023-02-28T03:08:17;10.40;;;4.23;;
39890;SDS011;25564;53.312;9.790;2023-02-28T03:10:50;9.27;;;3.03;;
39890;SDS011;25564;53.312;9.790;2023-02-28T03:13:28;7.73;;;3.67;;
39890;SDS011;25564;53.312;9.790;2023-02-28T03:19:14;6.50;;;2.80;;
39890;SDS011;25564;53.312;9.790;2023-02-28T03:22:30;7.50;;;3.03;;
39890;SDS011;25564;53.312;9.790;2023-02-28T03:25:07;4.40;;;2.37;;
39890;SDS011;25564;53.312;9.790;2023-02-28T03:27:57;6.43;;;3.10;;
39890;SDS011;25564;53.312;9.790;2023-02-28T03:30:49;5.95;;;2.55;;
39890;SDS011;25564;53.312;9.790;2023-02-28T03:36:40;7.07;;;2.90;;
39890;SDS011;25564;53.312;9.790;2023-02-28T03:39:20;4.67;;;2.40;;
39890;SDS011;25564;53.312;9.790;2023-02-28T03:42:09;9.97;;;3.30;;
39890;SDS011;25564;53.312;9.790;2023-02-28T03:44:53;6.97;;;3.20;;
39890;SDS011;25564;53.312;9.790;2023-02-28T03:47:29;7.20;;;2.70;;
39890;SDS011;25564;53.312;9.790;2023-02-28T03:50:17;5.73;;;2.67;;
39890;SDS011;25564;53.312;9.790;2023-02-28T03:52:57;4.33;;;2.63;;
39890;SDS011;25564;53.312;9.790;2023-02-28T03:55:49;5.97;;;2.97;;
39890;SDS011;25564;53.312;9.790;2023-02-28T03:58:39;6.23;;;2.67;;
39890;SDS011;25564;53.312;9.790;2023-02-28T04:01:41;5.37;;;2.93;;
39890;SDS011;25564;53.312;9.790;2023-02-28T04:04:15;7.90;;;3.57;;
39890;SDS011;25564;53.312;9.790;2023-02-28T04:06:49;5.33;;;3.27;;
39890;SDS011;25564;53.312;9.790;2023-02-28T04:09:31;9.43;;;2.87;;
39890;SDS011;25564;53.312;9.790;2023-02-28T04:12:03;7.87;;;3.27;;
39890;SDS011;25564;53.312;9.790;2023-02-28T04:14:34;7.10;;;3.40;;
39890;SDS011;25564;53.312;9.790;2023-02-28T04:17:06;6.93;;;3.00;;
39890;SDS011;25564;53.312;9.790;2023-02-28T04:19:37;7.00;;;3.07;;
39890;SDS011;25564;53.312;9.790;2023-02-28T04:22:09;7.90;;;3.53;;
39890;SDS011;25564;53.312;9.790;2023-02-28T04:24:40;8.13;;;3.57;;
39890;SDS011;25564;53.312;9.790;2023-02-28T04:27:12;8.13;;;3.33;;
39890;SDS011;25564;53.312;9.790;2023-02-28T04:29:43;5.00;;;2.80;;
39890;SDS011;25564;53.312;9.790;2023-02-28T04:32:15;4.47;;;2.73;;
39890;SDS011;25564;53.312;9.790;2023-02-28T04:34:47;9.03;;;3.13;;
39890;SDS011;25564;53.312;9.790;2023-02-28T04:37:18;5.47;;;3.00;;
39890;SDS011;25564;53.312;9.790;2023-02-28T04:39:49;4.33;;;2.70;;
39890;SDS011;25564;53.312;9.790;2023-02-28T04:42:20;5.27;;;3.50;;
39890;SDS011;25564;53.312;9.790;2023-02-28T04:44:52;6.87;;;3.10;;
39890;SDS011;25564;53.312;9.790;2023-02-28T04:47:23;5.73;;;2.80;;
39890;SDS011;25564;53.312;9.790;2023-02-28T04:49:55;6.00;;;2.87;;
39890;SDS011;25564;53.312;9.790;2023-02-28T04:52:27;7.30;;;3.43;;
39890;SDS011;25564;53.312;9.790;2023-02-28T04:54:58;5.83;;;3.07;;
39890;SDS011;25564;53.312;9.790;2023-02-28T04:57:30;6.13;;;2.93;;
39890;SDS011;25564;53.312;9.790;2023-02-28T05:00:01;5.50;;;3.37;;
39890;SDS011;25564;53.312;9.790;2023-02-28T05:02:35;6.80;;;3.33;;
39890;SDS011;25564;53.312;9.790;2023-02-28T05:05:07;5.47;;;3.20;;
39890;SDS011;25564;53.312;9.790;2023-02-28T05:07:38;10.83;;;3.20;;
39890;SDS011;25564;53.312;9.790;2023-02-28T05:10:10;9.80;;;3.17;;
39890;SDS011;25564;53.312;9.790;2023-02-28T05:12:42;5.33;;;2.93;;
39890;SDS011;25564;53.312;9.790;2023-02-28T05:15:14;6.97;;;2.90;;
39890;SDS011;25564;53.312;9.790;2023-02-28T05:17:47;8.17;;;3.20;;
39890;SDS011;25564;53.312;9.790;2023-02-28T05:20:18;8.00;;;4.63;;
39890;SDS011;25564;53.312;9.790;2023-02-28T05:22:49;8.60;;;3.27;;
39890;SDS011;25564;53.312;9.790;2023-02-28T05:25:21;7.60;;;3.30;;
39890;SDS011;25564;53.312;9.790;2023-02-28T05:27:53;8.43;;;3.07;;
39890;SDS011;25564;53.312;9.790;2023-02-28T05:30:24;6.50;;;3.30;;
39890;SDS011;25564;53.312;9.790;2023-02-28T05:32:56;5.33;;;3.23;;
39890;SDS011;25564;53.312;9.790;2023-02-28T05:35:27;7.87;;;3.80;;
39890;SDS011;25564;53.312;9.790;2023-02-28T05:37:58;8.47;;;2.73;;
39890;SDS011;25564;53.312;9.790;2023-02-28T05:40:30;6.97;;;2.90;;
39890;SDS011;25564;53.312;9.790;2023-02-28T05:43:01;10.77;;;3.17;;
39890;SDS011;25564;53.312;9.790;2023-02-28T05:45:32;5.57;;;3.63;;
39890;SDS011;25564;53.312;9.790;2023-02-28T05:48:04;5.23;;;3.10;;
39890;SDS011;25564;53.312;9.790;2023-02-28T05:50:36;6.57;;;2.97;;
39890;SDS011;25564;53.312;9.790;2023-02-28T05:53:07;6.03;;;2.53;;
39890;SDS011;25564;53.312;9.790;2023-02-28T05:55:38;7.27;;;3.17;;
39890;SDS011;25564;53.312;9.790;2023-02-28T05:58:10;5.27;;;3.03;;
39890;SDS011;25564;53.312;9.790;2023-02-28T06:00:41;8.77;;;3.80;;
39890;SDS011;25564;53.312;9.790;2023-02-28T06:03:12;6.57;;;3.37;;
39890;SDS011;25564;53.312;9.790;2023-02-28T06:05:44;6.77;;;2.80;;
39890;SDS011;25564;53.312;9.790;2023-02-28T06:08:15;9.17;;;3.37;;
39890;SDS011;25564;53.312;9.790;2023-02-28T06:10:47;5.17;;;2.73;;
39890;SDS011;25564;53.312;9.790;2023-02-28T06:13:18;7.40;;;3.27;;
39890;SDS011;25564;53.312;9.790;2023-02-28T06:15:50;6.80;;;2.93;;
39890;SDS011;25564;53.312;9.790;2023-02-28T06:18:21;10.33;;;3.13;;
39890;SDS011;25564;53.312;9.790;2023-02-28T06:20:53;9.40;;;3.83;;
39890;SDS011;25564;53.312;9.790;2023-02-28T06:23:25;5.83;;;3.07;;
39890;SDS011;25564;53.312;9.790;2023-02-28T06:25:56;4.73;;;2.67;;
39890;SDS011;25564;53.312;9.790;2023-02-28T06:28:29;8.67;;;3.50;;
39890;SDS011;25564;53.312;9.790;2023-02-28T06:31:05;7.17;;;3.60;;
39890;SDS011;25564;53.312;9.790;2023-02-28T06:33:38;10.57;;;3.70;;
39890;SDS011;25564;53.312;9.790;2023-02-28T06:36:11;6.23;;;3.00;;
39890;SDS011;25564;53.312;9.790;2023-02-28T06:38:43;7.67;;;3.93;;
39890;SDS011;25564;53.312;9.790;2023-02-28T06:41:15;7.03;;;3.03;;
39890;SDS011;25564;53.312;9.790;2023-02-28T06:43:46;8.50;;;4.20;;
39890;SDS011;25564;53.312;9.790;2023-02-28T06:46:18;8.83;;;3.63;;
39890;SDS011;25564;53.312;9.790;2023-02-28T06:48:49;6.63;;;3.10;;
39890;SDS011;25564;53.312;9.790;2023-02-28T06:51:20;6.63;;;2.90;;
39890;SDS011;25564;53.312;9.790;2023-02-28T06:53:53;7.63;;;3.00;;
39890;SDS011;25564;53.312;9.790;2023-02-28T06:56:24;7.53;;;3.90;;
39890;SDS011;25564;53.312;9.790;2023-02-28T06:58:55;6.53;;;3.13;;
39890;SDS011;25564;53.312;9.790;2023-02-28T07:01:27;5.17;;;3.43;;
39890;SDS011;25564;53.312;9.790;2023-02-28T07:03:59;7.30;;;2.80;;
39890;SDS011;25564;53.312;9.790;2023-02-28T07:06:31;6.17;;;3.17;;
39890;SDS011;25564;53.312;9.790;2023-02-28T07:09:02;9.30;;;3.67;;
39890;SDS011;25564;53.312;9.790;2023-02-28T07:11:35;5.13;;;2.90;;
39890;SDS011;25564;53.312;9.790;2023-02-28T07:14:06;8.17;;;3.60;;
39890;SDS011;25564;53.312;9.790;2023-02-28T07:16:38;6.53;;;3.33;;
39890;SDS011;25564;53.312;9.790;2023-02-28T07:19:09;7.87;;;4.47;;
39890;SDS011;25564;53.312;9.790;2023-02-28T07:21:41;8.60;;;4.83;;
39890;SDS011;25564;53.312;9.790;2023-02-28T07:24:12;6.50;;;3.50;;
39890;SDS011;25564;53.312;9.790;2023-02-28T07:26:46;7.83;;;4.27;;
39890;SDS011;25564;53.312;9.790;2023-02-28T07:29:18;20.67;;;10.97;;
39890;SDS011;25564;53.312;9.790;2023-02-28T07:31:49;24.33;;;10.53;;
39890;SDS011;25564;53.312;9.790;2023-02-28T07:34:24;17.57;;;8.63;;
39890;SDS011;25564;53.312;9.790;2023-02-28T07:36:56;13.67;;;7.77;;
39890;SDS011;25564;53.312;9.790;2023-02-28T07:39:28;14.30;;;7.87;;
39890;SDS011;25564;53.312;9.790;2023-02-28T07:41:59;18.17;;;7.70;;
39890;SDS011;25564;53.312;9.790;2023-02-28T07:44:31;15.83;;;7.57;;
39890;SDS011;25564;53.312;9.790;2023-02-28T07:47:02;14.80;;;7.30;;
39890;SDS011;25564;53.312;9.790;2023-02-28T07:49:34;19.20;;;8.83;;
39890;SDS011;25564;53.312;9.790;2023-02-28T07:52:07;17.90;;;8.37;;
39890;SDS011;25564;53.312;9.790;2023-02-28T07:54:38;15.00;;;8.63;;
39890;SDS011;25564;53.312;9.790;2023-02-28T07:57:12;14.23;;;8.00;;
39890;SDS011;25564;53.312;9.790;2023-02-28T07:59:43;13.50;;;6.50;;
39890;SDS011;25564;53.312;9.790;2023-02-28T08:02:16;10.37;;;5.63;;
39890;SDS011;25564;53.312;9.790;2023-02-28T08:04:49;10.57;;;5.83;;
39890;SDS011;25564;53.312;9.790;2023-02-28T08:07:20;13.40;;;5.93;;
39890;SDS011;25564;53.312;9.790;2023-02-28T08:09:52;9.03;;;5.20;;
39890;SDS011;25564;53.312;9.790;2023-02-28T08:12:23;9.37;;;4.93;;
39890;SDS011;25564;53.312;9.790;2023-02-28T08:14:54;9.07;;;3.53;;
39890;SDS011;25564;53.312;9.790;2023-02-28T08:17:25;6.33;;;2.73;;
39890;SDS011;25564;53.312;9.790;2023-02-28T08:19:57;4.10;;;2.37;;
39890;SDS011;25564;53.312;9.790;2023-02-28T08:22:28;3.83;;;1.83;;
39890;SDS011;25564;53.312;9.790;2023-02-28T08:24:59;4.47;;;2.40;;
39890;SDS011;25564;53.312;9.790;2023-02-28T08:27:31;6.10;;;2.40;;
39890;SDS011;25564;53.312;9.790;2023-02-28T08:30:02;13.23;;;7.97;;
39890;SDS011;25564;53.312;9.790;2023-02-28T08:32:34;7.63;;;5.13;;
39890;SDS011;25564;53.312;9.790;2023-02-28T08:35:06;6.47;;;3.40;;
39890;SDS011;25564;53.312;9.790;2023-02-28T08:37:40;5.73;;;2.27;;
39890;SDS011;25564;53.312;9.790;2023-02-28T08:40:11;4.97;;;2.43;;
39890;SDS011;25564;53.312;9.790;2023-02-28T08:42:48;5.33;;;2.03;;
39890;SDS011;25564;53.312;9.790;2023-02-28T08:45:20;3.83;;;2.47;;
39890;SDS011;25564;53.312;9.790;2023-02-28T08:47:51;6.23;;;3.10;;
39890;SDS011;25564;53.312;9.790;2023-02-28T08:50:25;7.63;;;2.33;;
39890;SDS011;25564;53.312;9.790;2023-02-28T08:52:56;3.83;;;2.10;;
39890;SDS011;25564;53.312;9.790;2023-02-28T08:55:28;2.33;;;1.67;;
39890;SDS011;25564;53.312;9.790;2023-02-28T08:57:59;5.17;;;2.27;;
39890;SDS011;25564;53.312;9.790;2023-02-28T09:00:32;3.60;;;2.00;;
39890;SDS011;25564;53.312;9.790;2023-02-28T09:03:03;4.60;;;1.87;;
39890;SDS011;25564;53.312;9.790;2023-02-28T09:05:34;3.23;;;1.70;;
39890;SDS011;25564;53.312;9.790;2023-02-28T09:08:06;3.17;;;1.50;;
39890;SDS011;25564;53.312;9.790;2023-02-28T09:10:37;4.13;;;1.30;;
39890;SDS011;25564;53.312;9.790;2023-02-28T09:13:08;3.37;;;1.40;;
39890;SDS011;25564;53.312;9.790;2023-02-28T09:15:39;3.53;;;1.00;;
39890;SDS011;25564;53.312;9.790;2023-02-28T09:18:11;5.40;;;2.43;;
39890;SDS011;25564;53.312;9.790;2023-02-28T09:20:43;3.23;;;1.43;;
39890;SDS011;25564;53.312;9.790;2023-02-28T09:23:14;4.07;;;1.83;;
39890;SDS011;25564;53.312;9.790;2023-02-28T09:25:50;5.03;;;1.50;;
39890;SDS011;25564;53.312;9.790;2023-02-28T09:28:23;3.87;;;1.47;;
39890;SDS011;25564;53.312;9.790;2023-02-28T09:30:54;2.63;;;1.47;;
39890;SDS011;25564;53.312;9.790;2023-02-28T09:33:26;5.77;;;1.73;;
39890;SDS011;25564;53.312;9.790;2023-02-28T09:35:58;3.33;;;1.20;;
39890;SDS011;25564;53.312;9.790;2023-02-28T09:38:31;3.10;;;1.40;;
39890;SDS011;25564;53.312;9.790;2023-02-28T09:41:04;8.97;;;3.47;;
39890;SDS011;25564;53.312;9.790;2023-02-28T09:43:45;2.57;;;1.27;;
39890;SDS011;25564;53.312;9.790;2023-02-28T09:46:37;2.35;;;0.70;;
39890;SDS011;25564;53.312;9.790;2023-02-28T09:49:12;3.90;;;1.73;;
39890;SDS011;25564;53.312;9.790;2023-02-28T09:54:23;4.07;;;1.47;;
39890;SDS011;25564;53.312;9.790;2023-02-28T09:59:59;4.10;;;0.98;;
39890;SDS011;25564;53.312;9.790;2023-02-28T10:03:04;1.43;;;0.70;;
39890;SDS011;25564;53.312;9.790;2023-02-28T10:05:43;2.33;;;0.90;;
39890;SDS011;25564;53.312;9.790;2023-02-28T10:08:30;1.63;;;0.73;;
39890;SDS011;25564;53.312;9.790;2023-02-28T10:11:07;1.57;;;0.80;;
39890;SDS011;25564;53.312;9.790;2023-02-28T10:13:48;1.83;;;0.87;;
39890;SDS011;25564;53.312;9.790;2023-02-28T10:16:25;1.63;;;0.70;;
39890;SDS011;25564;53.312;9.790;2023-02-28T10:22:22;2.47;;;0.80;;
39890;SDS011;25564;53.312;9.790;2023-02-28T10:27:47;4.17;;;0.97;;
39890;SDS011;25564;53.312;9.790;2023-02-28T10:30:20;2.17;;;0.97;;
39890;SDS011;25564;53.312;9.790;2023-02-28T10:32:51;2.23;;;0.80;;
39890;SDS011;25564;53.312;9.790;2023-02-28T10:35:25;1.30;;;0.90;;
39890;SDS011;25564;53.312;9.790;2023-02-28T10:37:58;3.07;;;1.00;;
39890;SDS011;25564;53.312;9.790;2023-02-28T10:40:32;1.43;;;0.90;;
39890;SDS011;25564;53.312;9.790;2023-02-28T10:48:33;1.87;;;0.80;;
39890;SDS011;25564;53.312;9.790;2023-02-28T10:51:08;2.13;;;0.80;;
39890;SDS011;25564;53.312;9.790;2023-02-28T10:56:30;2.13;;;1.20;;
39890;SDS011;25564;53.312;9.790;2023-02-28T10:59:22;2.67;;;1.10;;
39890;SDS011;25564;53.312;9.790;2023-02-28T11:01:59;1.00;;;0.50;;
39890;SDS011;25564;53.312;9.790;2023-02-28T11:07:20;1.57;;;0.80;;
39890;SDS011;25564;53.312;9.790;2023-02-28T11:09:56;0.77;;;0.70;;
39890;SDS011;25564;53.312;9.790;2023-02-28T11:12:30;1.20;;;0.70;;
39890;SDS011;25564;53.312;9.790;2023-02-28T11:17:55;2.40;;;0.80;;
39890;SDS011;25564;53.312;9.790;2023-02-28T11:20:30;3.67;;;0.97;;
39890;SDS011;25564;53.312;9.790;2023-02-28T11:23:03;1.87;;;0.90;;
39890;SDS011;25564;53.312;9.790;2023-02-28T11:25:36;1.60;;;0.70;;
39890;SDS011;25564;53.312;9.790;2023-02-28T11:28:23;3.00;;;1.30;;
39890;SDS011;25564;53.312;9.790;2023-02-28T11:33:50;3.57;;;1.10;;
39890;SDS011;25564;53.312;9.790;2023-02-28T11:36:24;2.10;;;0.83;;
39890;SDS011;25564;53.312;9.790;2023-02-28T11:39:04;2.53;;;0.90;;
39890;SDS011;25564;53.312;9.790;2023-02-28T11:44:42;1.33;;;1.00;;
39890;SDS011;25564;53.312;9.790;2023-02-28T11:47:32;0.97;;;0.60;;
39890;SDS011;25564;53.312;9.790;2023-02-28T11:50:22;2.33;;;1.00;;
39890;SDS011;25564;53.312;9.790;2023-02-28T12:02:42;2.13;;;1.00;;
39890;SDS011;25564;53.312;9.790;2023-02-28T12:05:08;2.13;;;1.40;;
39890;SDS011;25564;53.312;9.790;2023-02-28T12:10:35;1.85;;;0.60;;
39890;SDS011;25564;53.312;9.790;2023-02-28T12:19:36;1.80;;;0.60;;
39890;SDS011;25564;53.312;9.790;2023-02-28T12:25:10;1.03;;;0.67;;
39890;SDS011;25564;53.312;9.790;2023-02-28T12:28:09;0.93;;;0.63;;
39890;SDS011;25564;53.312;9.790;2023-02-28T12:30:50;1.40;;;0.80;;
39890;SDS011;25564;53.312;9.790;2023-02-28T12:33:33;1.93;;;0.90;;
39890;SDS011;25564;53.312;9.790;2023-02-28T12:36:09;1.83;;;0.80;;
39890;SDS011;25564;53.312;9.790;2023-02-28T12:38:44;1.13;;;0.73;;
39890;SDS011;25564;53.312;9.790;2023-02-28T12:41:19;2.30;;;0.73;;
39890;SDS011;25564;53.312;9.790;2023-02-28T12:44:03;0.50;;;0.50;;
39890;SDS011;25564;53.312;9.790;2023-02-28T12:46:41;1.53;;;0.80;;
39890;SDS011;25564;53.312;9.790;2023-02-28T12:49:16;1.27;;;0.90;;
39890;SDS011;25564;53.312;9.790;2023-02-28T12:51:52;1.63;;;0.97;;
39890;SDS011;25564;53.312;9.790;2023-02-28T12:54:25;0.90;;;0.70;;
39890;SDS011;25564;53.312;9.790;2023-02-28T13:00:16;0.83;;;0.67;;
39890;SDS011;25564;53.312;9.790;2023-02-28T13:11:37;2.47;;;0.83;;
39890;SDS011;25564;53.312;9.790;2023-02-28T13:17:18;1.30;;;0.87;;
39890;SDS011;25564;53.312;9.790;2023-02-28T13:27:53;1.30;;;0.83;;
39890;SDS011;25564;53.312;9.790;2023-02-28T13:33:29;1.00;;;0.70;;
39890;SDS011;25564;53.312;9.790;2023-02-28T13:44:06;0.83;;;0.70;;
39890;SDS011;25564;53.312;9.790;2023-02-28T13:55:11;3.20;;;1.00;;
39890;SDS011;25564;53.312;9.790;2023-02-28T14:00:59;1.27;;;0.70;;
39890;SDS011;25564;53.312;9.790;2023-02-28T14:07:03;1.00;;;0.70;;
39890;SDS011;25564;53.312;9.790;2023-02-28T14:09:39;1.30;;;0.73;;
39890;SDS011;25564;53.312;9.790;2023-02-28T14:18:03;1.83;;;0.90;;
39890;SDS011;25564;53.312;9.790;2023-02-28T14:20:44;0.90;;;0.60;;
39890;SDS011;25564;53.312;9.790;2023-02-28T14:23:36;1.63;;;0.80;;
39890;SDS011;25564;53.312;9.790;2023-02-28T14:29:07;3.03;;;0.80;;
39890;SDS011;25564;53.312;9.790;2023-02-28T14:32:03;1.77;;;0.90;;
39890;SDS011;25564;53.312;9.790;2023-02-28T14:34:55;1.20;;;0.90;;
39890;SDS011;25564;53.312;9.790;2023-02-28T14:37:36;2.10;;;1.00;;
39890;SDS011;25564;53.312;9.790;2023-02-28T14:42:54;2.57;;;0.80;;
39890;SDS011;25564;53.312;9.790;2023-02-28T14:45:35;2.33;;;0.80;;
39890;SDS011;25564;53.312;9.790;2023-02-28T14:48:08;1.20;;;0.90;;
39890;SDS011;25564;53.312;9.790;2023-02-28T14:50:41;1.77;;;0.80;;
39890;SDS011;25564;53.312;9.790;2023-02-28T14:53:21;1.27;;;0.80;;
39890;SDS011;25564;53.312;9.790;2023-02-28T14:55:54;1.10;;;0.70;;
39890;SDS011;25564;53.312;9.790;2023-02-28T14:58:27;2.33;;;0.90;;
39890;SDS011;25564;53.312;9.790;2023-02-28T15:01:02;1.83;;;0.70;;
39890;SDS011;25564;53.312;9.790;2023-02-28T15:03:35;1.57;;;0.80;;
39890;SDS011;25564;53.312;9.790;2023-02-28T15:06:15;2.67;;;1.00;;
39890;SDS011;25564;53.312;9.790;2023-02-28T15:08:56;3.97;;;1.33;;
39890;SDS011;25564;53.312;9.790;2023-02-28T15:11:38;1.47;;;0.90;;
39890;SDS011;25564;53.312;9.790;2023-02-28T15:14:15;3.60;;;1.00;;
39890;SDS011;25564;53.312;9.790;2023-02-28T15:16:57;2.13;;;1.10;;
39890;SDS011;25564;53.312;9.790;2023-02-28T15:19:34;2.27;;;1.00;;
39890;SDS011;25564;53.312;9.790;2023-02-28T15:22:12;4.33;;;1.10;;
39890;SDS011;25564;53.312;9.790;2023-02-28T15:24:48;2.47;;;1.25;;
39890;SDS011;25564;53.312;9.790;2023-02-28T15:27:29;1.43;;;0.60;;
39890;SDS011;25564;53.312;9.790;2023-02-28T15:30:04;2.37;;;0.80;;
39890;SDS011;25564;53.312;9.790;2023-02-28T15:32:38;2.70;;;0.90;;
39890;SDS011;25564;53.312;9.790;2023-02-28T15:40:56;1.50;;;0.87;;
39890;SDS011;25564;53.312;9.790;2023-02-28T15:43:30;0.83;;;0.77;;
39890;SDS011;25564;53.312;9.790;2023-02-28T15:48:51;1.43;;;0.70;;
39890;SDS011;25564;53.312;9.790;2023-02-28T15:51:27;0.98;;;0.80;;
39890;SDS011;25564;53.312;9.790;2023-02-28T15:54:07;1.47;;;0.80;;
39890;SDS011;25564;53.312;9.790;2023-02-28T15:56:43;1.33;;;0.87;;
39890;SDS011;25564;53.312;9.790;2023-02-28T15:59:18;6.23;;;1.07;;
39890;SDS011;25564;53.312;9.790;2023-02-28T16:02:11;3.13;;;0.70;;
39890;SDS011;25564;53.312;9.790;2023-02-28T16:07:40;1.90;;;0.90;;
39890;SDS011;25564;53.312;9.790;2023-02-28T16:10:14;1.93;;;0.80;;
39890;SDS011;25564;53.312;9.790;2023-02-28T16:12:45;0.97;;;0.60;;
39890;SDS011;25564;53.312;9.790;2023-02-28T16:15:19;2.13;;;1.07;;
39890;SDS011;25564;53.312;9.790;2023-02-28T16:17:53;4.53;;;1.52;;
39890;SDS011;25564;53.312;9.790;2023-02-28T16:20:26;1.97;;;0.80;;
39890;SDS011;25564;53.312;9.790;2023-02-28T16:22:59;2.03;;;0.90;;
39890;SDS011;25564;53.312;9.790;2023-02-28T16:25:40;1.40;;;1.30;;
39890;SDS011;25564;53.312;9.790;2023-02-28T16:28:19;6.27;;;1.30;;
39890;SDS011;25564;53.312;9.790;2023-02-28T16:30:54;2.30;;;1.10;;
39890;SDS011;25564;53.312;9.790;2023-02-28T16:33:26;2.60;;;1.30;;
39890;SDS011;25564;53.312;9.790;2023-02-28T16:35:57;3.90;;;1.17;;
39890;SDS011;25564;53.312;9.790;2023-02-28T16:38:29;3.37;;;1.43;;
39890;SDS011;25564;53.312;9.790;2023-02-28T16:41:00;4.07;;;2.23;;
39890;SDS011;25564;53.312;9.790;2023-02-28T16:43:31;4.10;;;2.40;;
39890;SDS011;25564;53.312;9.790;2023-02-28T16:46:03;4.33;;;2.50;;
39890;SDS011;25564;53.312;9.790;2023-02-28T16:48:36;3.87;;;2.33;;
39890;SDS011;25564;53.312;9.790;2023-02-28T16:51:11;3.43;;;2.10;;
39890;SDS011;25564;53.312;9.790;2023-02-28T16:53:44;5.25;;;3.55;;
39890;SDS011;25564;53.312;9.790;2023-02-28T16:56:19;3.73;;;2.17;;
39890;SDS011;25564;53.312;9.790;2023-02-28T16:58:53;5.53;;;3.17;;
39890;SDS011;25564;53.312;9.790;2023-02-28T17:01:28;5.32;;;3.10;;
39890;SDS011;25564;53.312;9.790;2023-02-28T17:04:01;6.43;;;3.00;;
39890;SDS011;25564;53.312;9.790;2023-02-28T17:06:32;5.43;;;2.70;;
39890;SDS011;25564;53.312;9.790;2023-02-28T17:09:03;6.30;;;3.30;;
39890;SDS011;25564;53.312;9.790;2023-02-28T17:11:35;3.97;;;2.43;;
39890;SDS011;25564;53.312;9.790;2023-02-28T17:14:06;5.07;;;2.70;;
39890;SDS011;25564;53.312;9.790;2023-02-28T17:16:38;6.13;;;3.27;;
39890;SDS011;25564;53.312;9.790;2023-02-28T17:19:12;5.97;;;3.10;;
39890;SDS011;25564;53.312;9.790;2023-02-28T17:21:45;42.83;;;19.23;;
39890;SDS011;25564;53.312;9.790;2023-02-28T17:24:16;19.50;;;10.73;;
39890;SDS011;25564;53.312;9.790;2023-02-28T17:27:00;10.90;;;5.67;;
39890;SDS011;25564;53.312;9.790;2023-02-28T17:29:32;10.73;;;5.77;;
39890;SDS011;25564;53.312;9.790;2023-02-28T17:32:03;19.10;;;8.80;;
39890;SDS011;25564;53.312;9.790;2023-02-28T17:34:47;13.67;;;7.63;;
39890;SDS011;25564;53.312;9.790;2023-02-28T17:37:19;15.37;;;7.63;;
39890;SDS011;25564;53.312;9.790;2023-02-28T17:39:50;10.70;;;6.60;;
39890;SDS011;25564;53.312;9.790;2023-02-28T17:42:21;9.07;;;5.77;;
39890;SDS011;25564;53.312;9.790;2023-02-28T17:44:53;8.33;;;4.37;;
39890;SDS011;25564;53.312;9.790;2023-02-28T17:47:24;13.63;;;5.33;;
39890;SDS011;25564;53.312;9.790;2023-02-28T17:49:55;10.73;;;4.50;;
39890;SDS011;25564;53.312;9.790;2023-02-28T17:52:27;10.07;;;4.70;;
39890;SDS011;25564;53.312;9.790;2023-02-28T17:55:00;14.77;;;6.63;;
39890;SDS011;25564;53.312;9.790;2023-02-28T17:57:31;14.87;;;6.60;;
39890;SDS011;25564;53.312;9.790;2023-02-28T18:00:03;13.73;;;5.87;;
39890;SDS011;25564;53.312;9.790;2023-02-28T18:02:37;16.43;;;8.03;;
39890;SDS011;25564;53.312;9.790;2023-02-28T18:05:09;18.07;;;8.10;;